Edgewood, Washington
Current Conditions -  °F | °C
As of 1:27 AM on Thursday 23 Oct 2014 (Local Time) from KTCM Reporting Station
Overcast Overcast  
Wind Chill: 12°   Ceiling: 5000
Heat Index: 12°   Visibility: 10mi
Dew Point: 10°   Wind: 3mph
Humidity: 88%   Direction: 140°SE
Pressure: 29.74"   Gusts: NA
Location:  47.2018°N, 122.233°W
Report Text: KTCM 230827Z AUTO 14003KT 10SM FEW037 OVC050 12/10 A2974 RMK AO2
Loading
Personal Weather Stations






























Interactive Weather Map
Tropical Storm Tracking
New forecast layout! Learn more

10-Day Weather Forecast

Advertisements
Track Severe Weather on mobile